Time;durP1;ratioP1;P1;durP2;ratioP2;P2;SDS_P1;SDS_P2;PMS_P1;PMS_P2;Temp;Humidity;BMP_temperature;BMP_pressure;BME280_temperature;BME280_humidity;BME280_pressure;Samples;Min_cycle;Max_cycle;Signal;HPM_P1;HPM_P2
2021/11/16 00:01:42;;;;;;;143.15;49.30;;;;;;;6.41;100.00;98737.06;5039250;28;20043;-91
2021/11/16 00:04:09;;;;;;;134.18;49.80;;;;;;;6.40;100.00;98743.28;5040551;28;20029;-91
2021/11/16 00:06:36;;;;;;;129.05;47.38;;;;;;;6.37;100.00;98718.56;5040857;28;20029;-93
2021/11/16 00:09:35;;;;;;;139.23;48.50;;;;;;;6.49;100.00;98734.22;5042331;28;20025;-91
2021/11/16 00:12:01;;;;;;;126.35;43.47;;;;;;;6.39;100.00;98720.28;5039749;28;20033;-91
2021/11/16 00:14:29;;;;;;;127.88;43.42;;;;;;;6.40;100.00;98719.34;5040277;28;20029;-91
2021/11/16 00:16:56;;;;;;;116.00;41.88;;;;;;;6.48;100.00;98721.81;5039917;28;20093;-90
2021/11/16 00:19:21;;;;;;;119.20;42.13;;;;;;;6.51;100.00;98735.03;5038362;28;20028;-93
2021/11/16 00:21:48;;;;;;;118.30;40.90;;;;;;;6.48;100.00;98736.00;5039713;28;20029;-90
2021/11/16 00:24:18;;;;;;;115.95;42.90;;;;;;;6.39;100.00;98733.56;5038894;28;20024;-91
2021/11/16 00:26:46;;;;;;;127.65;42.25;;;;;;;6.40;100.00;98735.31;5039297;28;20025;-91
2021/11/16 00:29:12;;;;;;;112.28;41.60;;;;;;;6.26;100.00;98708.22;5057600;28;20032;-91
2021/11/16 00:31:38;;;;;;;117.80;41.75;;;;;;;6.41;100.00;98734.41;5040646;28;20493;-91
2021/11/16 00:34:04;;;;;;;127.70;44.85;;;;;;;6.46;100.00;98744.91;5042502;28;20078;-90
2021/11/16 00:36:31;;;;;;;123.47;42.45;;;;;;;6.40;100.00;98727.31;5043047;28;20528;-92
2021/11/16 00:38:58;;;;;;;117.95;43.08;;;;;;;6.41;100.00;98717.56;5042044;28;20028;-90
2021/11/16 00:41:24;;;;;;;114.00;41.42;;;;;;;6.41;100.00;98709.59;5048307;28;20054;-91
2021/11/16 00:43:50;;;;;;;117.55;41.33;;;;;;;6.33;100.00;98712.47;5079198;28;20028;-91
2021/11/16 00:46:16;;;;;;;112.55;41.97;;;;;;;6.39;100.00;98746.00;5061855;28;20514;-93
2021/11/16 00:48:42;;;;;;;129.50;45.25;;;;;;;6.21;100.00;98712.81;5062364;28;20028;-91
2021/11/16 00:51:09;;;;;;;134.55;44.72;;;;;;;6.32;100.00;98728.44;5077680;28;20036;-92
2021/11/16 00:53:37;;;;;;;122.95;43.50;;;;;;;6.22;100.00;98726.94;5041559;28;20044;-90
2021/11/16 00:56:05;;;;;;;120.20;43.97;;;;;;;6.30;100.00;98740.91;5057171;28;20511;-91
2021/11/16 00:58:31;;;;;;;121.20;42.22;;;;;;;6.29;100.00;98732.06;5042471;28;20029;-90
2021/11/16 01:00:57;;;;;;;147.77;48.08;;;;;;;6.13;100.00;98721.84;5042290;28;20032;-90
2021/11/16 01:03:24;;;;;;;132.52;46.40;;;;;;;6.10;100.00;98717.50;5039163;28;20029;-90
2021/11/16 01:05:51;;;;;;;130.43;44.55;;;;;;;6.15;100.00;98726.25;5057516;28;20036;-91
2021/11/16 01:08:17;;;;;;;141.90;48.97;;;;;;;6.15;100.00;98738.66;5062149;28;20401;-89
2021/11/16 01:10:44;;;;;;;143.93;49.33;;;;;;;6.06;100.00;98734.41;5055847;28;20067;-90
2021/11/16 01:13:11;;;;;;;140.15;46.17;;;;;;;6.11;100.00;98736.97;5041078;28;20032;-91
2021/11/16 01:15:41;;;;;;;131.10;44.45;;;;;;;6.26;100.00;98739.22;5041748;28;20029;-91
2021/11/16 01:18:08;;;;;;;117.32;42.67;;;;;;;6.10;100.00;98724.59;5058455;28;20036;-90
2021/11/16 01:20:34;;;;;;;132.20;46.83;;;;;;;6.08;100.00;98724.66;5061647;28;20024;-88
2021/11/16 01:23:03;;;;;;;123.18;45.17;;;;;;;6.15;100.00;98728.03;5068784;28;20557;-91
2021/11/16 01:25:28;;;;;;;128.20;44.72;;;;;;;6.13;100.00;98711.22;5045073;28;20420;-92
2021/11/16 01:27:59;;;;;;;116.97;41.42;;;;;;;6.17;100.00;98724.41;5060812;28;20028;-92
2021/11/16 01:30:26;;;;;;;122.03;42.63;;;;;;;6.18;100.00;98719.97;5061082;28;20488;-89
2021/11/16 01:35:29;;;;;;;97.13;35.95;;;;;;;6.15;100.00;98698.81;5077254;28;20102;-90
2021/11/16 01:37:55;;;;;;;114.85;41.38;;;;;;;6.05;100.00;98699.94;5062348;28;20047;-91
2021/11/16 01:40:21;;;;;;;120.55;40.13;;;;;;;6.25;100.00;98727.72;5040363;28;20092;-92
2021/11/16 01:42:50;;;;;;;118.28;39.67;;;;;;;6.20;100.00;98702.19;5054977;28;20024;-92
2021/11/16 01:45:16;;;;;;;115.97;39.95;;;;;;;6.18;100.00;98693.41;5058692;28;20024;-90
2021/11/16 01:47:43;;;;;;;118.55;41.80;;;;;;;6.23;100.00;98696.81;5041934;28;20115;-93
2021/11/16 01:50:10;;;;;;;101.25;36.38;;;;;;;6.47;100.00;98730.69;5041358;28;20032;-92
2021/11/16 01:52:35;;;;;;;96.28;36.88;;;;;;;6.42;100.00;98714.00;5040698;28;20025;-92
2021/11/16 01:55:04;;;;;;;95.05;34.95;;;;;;;6.54;100.00;98730.50;5040914;28;20509;-91
2021/11/16 01:57:30;;;;;;;114.18;39.83;;;;;;;6.55;100.00;98726.06;5040162;28;20028;-91
2021/11/16 01:59:55;;;;;;;106.63;37.92;;;;;;;6.27;100.00;98682.53;5040495;28;20082;-92
2021/11/16 02:02:21;;;;;;;100.68;36.70;;;;;;;6.32;100.00;98693.91;5040442;28;20021;-91
2021/11/16 02:04:47;;;;;;;112.88;36.88;;;;;;;6.35;100.00;98704.44;5040355;28;20021;-91
2021/11/16 02:07:13;;;;;;;105.38;37.85;;;;;;;6.44;100.00;98714.84;5041156;28;20076;-92
2021/11/16 02:09:39;;;;;;;115.38;38.97;;;;;;;6.38;100.00;98701.72;5041378;28;20056;-91
2021/11/16 02:12:05;;;;;;;100.65;36.85;;;;;;;6.38;100.00;98696.41;5040544;28;20111;-90
2021/11/16 02:14:31;;;;;;;101.60;36.45;;;;;;;6.49;100.00;98697.84;5040665;28;20092;-92
2021/11/16 02:16:57;;;;;;;90.28;37.08;;;;;;;6.49;100.00;98697.00;5055174;28;20071;-91
2021/11/16 02:19:23;;;;;;;109.97;39.33;;;;;;;6.42;100.00;98695.41;5060979;28;20396;-91
2021/11/16 02:21:49;;;;;;;100.47;37.72;;;;;;;6.28;100.00;98708.19;5061163;28;20526;-94
2021/11/16 02:24:15;;;;;;;100.95;37.35;;;;;;;6.21;100.00;98706.63;5061502;28;20036;-91
2021/11/16 02:26:41;;;;;;;100.75;38.05;;;;;;;6.22;100.00;98705.69;5060363;28;20472;-93
2021/11/16 02:29:07;;;;;;;92.00;36.42;;;;;;;6.37;100.00;98713.25;5061027;28;20051;-92
2021/11/16 02:31:34;;;;;;;94.28;34.67;;;;;;;6.43;100.00;98715.75;5060967;28;20086;-92
2021/11/16 02:33:59;;;;;;;86.22;34.13;;;;;;;6.39;100.00;98703.47;5062624;28;20085;-91
2021/11/16 02:36:31;;;;;;;78.22;32.03;;;;;;;6.26;100.00;98681.66;5060462;28;20040;-92
2021/11/16 02:38:56;;;;;;;77.40;28.25;;;;;;;6.43;100.00;98705.09;5059950;28;20553;-94
2021/11/16 02:41:25;;;;;;;68.28;28.73;;;;;;;6.52;100.00;98718.19;5076644;28;20008;-92
2021/11/16 02:43:51;;;;;;;76.32;28.90;;;;;;;6.43;100.00;98710.44;5061223;28;20090;-91
2021/11/16 02:46:19;;;;;;;81.95;29.23;;;;;;;6.32;100.00;98697.44;5075911;28;20020;-90
2021/11/16 02:48:45;;;;;;;81.90;31.55;;;;;;;6.27;100.00;98687.84;5076382;28;20157;-90
2021/11/16 02:51:11;;;;;;;82.03;31.85;;;;;;;6.39;100.00;98692.84;5059029;28;20054;-90
2021/11/16 02:53:39;;;;;;;81.07;31.65;;;;;;;6.42;100.00;98698.94;5060142;28;20093;-92
2021/11/16 02:56:08;;;;;;;71.20;29.92;;;;;;;6.44;100.00;98697.13;5059661;28;20028;-92
2021/11/16 02:58:35;;;;;;;62.15;26.92;;;;;;;6.28;100.00;98663.88;5059699;28;20028;-92
2021/11/16 03:01:06;;;;;;;50.35;23.88;;;;;;;6.39;100.00;98667.16;5060001;28;20097;-92
2021/11/16 03:03:32;;;;;;;56.72;24.92;;;;;;;6.46;100.00;98699.75;5060264;28;20032;-91
2021/11/16 03:05:58;;;;;;;47.88;21.80;;;;;;;6.32;100.00;98668.22;5061072;28;20530;-90
2021/11/16 03:08:26;;;;;;;52.03;22.45;;;;;;;6.49;100.00;98704.97;5061349;28;20025;-91
2021/11/16 03:10:58;;;;;;;53.78;22.83;;;;;;;6.38;100.00;98688.44;5059497;28;20107;-91
2021/11/16 03:13:26;;;;;;;53.15;22.95;;;;;;;6.43;100.00;98695.34;5059554;28;20037;-91
2021/11/16 03:15:52;;;;;;;49.42;21.98;;;;;;;6.28;100.00;98669.19;5060872;28;20028;-92
2021/11/16 03:18:18;;;;;;;46.35;21.52;;;;;;;6.29;100.00;98665.66;5060106;28;20089;-91
2021/11/16 03:20:45;;;;;;;45.85;20.77;;;;;;;6.56;100.00;98701.22;5060003;28;20111;-92
2021/11/16 03:23:22;;;;;;;44.30;20.08;;;;;;;6.55;100.00;98696.84;5061066;28;20052;-91
2021/11/16 03:25:52;;;;;;;44.03;21.05;;;;;;;6.61;100.00;98703.75;5061714;28;20515;-89
2021/11/16 03:28:20;;;;;;;55.08;21.98;;;;;;;6.47;100.00;98680.19;5036679;28;20068;-91
2021/11/16 03:30:49;;;;;;;45.90;21.00;;;;;;;6.60;100.00;98700.22;5019643;28;20032;-91
2021/11/16 03:33:16;;;;;;;41.92;20.33;;;;;;;6.55;100.00;98699.50;5037605;28;20083;-92
2021/11/16 03:35:42;;;;;;;46.78;21.10;;;;;;;6.58;100.00;98703.84;5022174;28;20037;-91
2021/11/16 03:38:09;;;;;;;50.22;21.92;;;;;;;6.48;100.00;98693.47;5058011;28;20036;-91
2021/11/16 03:40:36;;;;;;;47.60;21.60;;;;;;;6.47;100.00;98698.81;5064267;28;20411;-91
2021/11/16 03:46:24;;;;;;;48.05;21.08;;;;;;;6.51;100.00;98688.06;5098936;28;20423;-91
2021/11/16 03:48:50;;;;;;;51.80;22.75;;;;;;;6.55;100.00;98686.19;5056379;28;20217;-92
2021/11/16 03:51:16;;;;;;;53.22;23.23;;;;;;;6.48;100.00;98692.59;5044085;28;20056;-91
2021/11/16 03:53:45;;;;;;;55.40;22.75;;;;;;;6.40;100.00;98686.59;5042943;28;20124;-92
2021/11/16 03:56:14;;;;;;;52.22;22.30;;;;;;;6.48;100.00;98703.22;5043292;28;20028;-91
2021/11/16 03:58:40;;;;;;;51.28;22.30;;;;;;;6.40;100.00;98686.59;5043778;28;20028;-92
2021/11/16 04:01:10;;;;;;;50.53;20.75;;;;;;;6.48;100.00;98692.59;5044787;28;20085;-92
2021/11/16 04:03:38;;;;;;;45.42;21.10;;;;;;;6.49;100.00;98692.53;5045044;28;20540;-94
2021/11/16 04:06:05;;;;;;;50.42;21.30;;;;;;;6.39;100.00;98658.28;5043613;28;20051;-91
2021/11/16 04:08:31;;;;;;;43.28;20.80;;;;;;;6.37;100.00;98663.63;5046946;28;20036;-91
2021/11/16 04:10:57;;;;;;;47.15;19.80;;;;;;;6.65;100.00;98711.59;5048432;28;20016;-90
2021/11/16 04:13:26;;;;;;;46.88;19.63;;;;;;;6.60;100.00;98689.59;5048325;28;20032;-90
2021/11/16 04:15:52;;;;;;;43.58;19.90;;;;;;;6.59;100.00;98690.50;5048392;28;20496;-89
2021/11/16 04:18:27;;;;;;;47.80;21.83;;;;;;;6.42;100.00;98661.75;5048535;28;20020;-90
2021/11/16 04:21:46;;;;;;;49.83;21.10;;;;;;;6.57;100.00;98708.28;5051725;28;20020;-91
2021/11/16 04:24:12;;;;;;;44.08;20.95;;;;;;;6.45;100.00;98680.25;5067181;28;20039;-91
2021/11/16 04:26:38;;;;;;;53.20;22.15;;;;;;;6.19;100.00;98639.34;5047981;28;20025;-91
2021/11/16 04:29:05;;;;;;;50.40;23.00;;;;;;;6.54;100.00;98697.75;5046952;28;20046;-92
2021/11/16 04:31:31;;;;;;;52.85;23.10;;;;;;;6.44;100.00;98685.59;5047596;28;20032;-91
2021/11/16 04:34:05;;;;;;;49.00;23.48;;;;;;;6.46;100.00;98694.44;5048035;28;20033;-92
2021/11/16 04:36:31;;;;;;;54.83;24.02;;;;;;;6.42;100.00;98679.47;5048246;28;20052;-90
2021/11/16 04:38:57;;;;;;;51.25;22.65;;;;;;;6.54;100.00;98695.97;5049668;28;20098;-92
2021/11/16 04:41:23;;;;;;;46.83;21.73;;;;;;;6.53;100.00;98677.38;5049912;28;20483;-90
2021/11/16 04:43:49;;;;;;;45.13;20.20;;;;;;;6.25;100.00;98628.56;5052018;28;20567;-92
2021/11/16 04:46:19;;;;;;;45.03;22.63;;;;;;;6.31;100.00;98637.22;5052398;28;20080;-90
2021/11/16 04:48:48;;;;;;;46.17;21.40;;;;;;;6.58;100.00;98688.78;5055705;28;20009;-91
2021/11/16 04:54:21;;;;;;;43.95;20.15;;;;;;;6.52;100.00;98680.97;5066785;28;20060;-91
2021/11/16 04:59:41;;;;;;;44.72;21.10;;;;;;;6.39;100.00;98660.94;5068831;28;20035;-93
2021/11/16 05:04:52;;;;;;;56.33;23.90;;;;;;;6.60;100.00;98696.69;5068444;28;20028;-91
2021/11/16 05:07:20;;;;;;;50.15;23.08;;;;;;;6.75;100.00;98705.13;5047784;28;20024;-91
2021/11/16 05:09:49;;;;;;;52.67;22.88;;;;;;;6.47;100.00;98696.16;5048194;28;20095;-91
2021/11/16 05:12:15;;;;;;;56.83;25.70;;;;;;;6.30;100.00;98682.47;5048309;28;20026;-91
2021/11/16 05:14:42;;;;;;;55.55;25.10;;;;;;;6.34;100.00;98695.59;5048611;28;20039;-91
2021/11/16 05:20:30;;;;;;;74.03;29.30;;;;;;;6.27;100.00;98682.53;5066278;28;20471;-92
2021/11/16 05:22:56;;;;;;;78.10;30.98;;;;;;;6.27;100.00;98694.06;5030215;28;20092;-91
2021/11/16 05:25:23;;;;;;;79.70;31.40;;;;;;;6.25;100.00;98695.84;5060210;28;20035;-93
2021/11/16 05:27:49;;;;;;;65.05;26.48;;;;;;;6.37;100.00;98705.28;5064811;28;20118;-77
2021/11/16 05:30:17;;;;;;;60.97;26.02;;;;;;;6.40;100.00;98705.19;5079602;28;20028;-89
2021/11/16 05:32:53;;;;;;;65.82;28.25;;;;;;;6.31;100.00;98685.06;5064119;28;20426;-88
2021/11/16 05:35:19;;;;;;;62.40;26.58;;;;;;;6.28;100.00;98665.66;5024232;28;20036;-88
2021/11/16 05:40:43;;;;;;;119.10;59.92;;;;;;;6.56;100.00;98703.88;5081098;28;20411;-83
2021/11/16 05:43:36;;;;;;;64.93;26.73;;;;;;;6.61;100.00;98715.28;5057477;28;20085;-89
2021/11/16 05:46:05;;;;;;;82.30;37.22;;;;;;;6.23;100.00;98641.91;4971802;28;20070;-90
2021/11/16 05:48:41;;;;;;;68.20;29.05;;;;;;;6.28;100.00;98647.06;5046530;28;20044;-90
2021/11/16 05:51:07;;;;;;;71.72;31.63;;;;;;;6.54;100.00;98661.41;5058615;28;20050;-76
2021/11/16 05:53:45;;;;;;;117.05;56.63;;;;;;;6.61;100.00;98704.63;5042133;28;20028;-90
2021/11/16 06:00:38;;;;;;;;;;;;;;;;;;;;;
2021/11/16 06:16:42;;;;;;;;;;;;;;;6.60;100.00;98736.56;4920894;29;20054;-87
2021/11/16 06:27:00;;;;;;;70.75;30.40;;;;;;;6.81;100.00;98754.59;4861967;29;20137;-86
2021/11/16 06:29:54;;;;;;;68.38;28.88;;;;;;;6.42;100.00;98692.75;4867977;29;20156;-86
2021/11/16 06:33:26;;;;;;;;;;;;;;;;;;;;;
2021/11/16 06:58:43;;;;;;;85.55;34.83;;;;;;;6.66;100.00;98739.94;4863394;29;20043;-89
2021/11/16 07:01:36;;;;;;;79.47;32.35;;;;;;;6.70;100.00;98736.28;4922149;29;20156;-88
2021/11/16 07:04:28;;;;;;;83.35;34.92;;;;;;;6.47;100.00;98712.09;4931146;29;20082;-87
2021/11/16 07:31:15;;;;;;;66.50;30.58;;;;;;;6.64;100.00;98736.44;4903277;29;20043;-87
2021/11/16 07:34:24;;;;;;;;;;;;;;;;;;;;;
2021/11/16 07:37:38;;;;;;;76.88;31.42;;;;;;;6.16;100.00;98684.59;4965053;28;20049;-87
2021/11/16 07:40:24;;;;;;;66.07;28.80;;;;;;;6.01;100.00;98669.94;4971938;28;20116;-87
2021/11/16 07:43:00;;;;;;;74.57;32.65;;;;;;;6.36;100.00;98730.13;5002634;28;20057;-88
2021/11/16 07:45:59;;;;;;;;;;;;;;;;;;;;;
2021/11/16 07:48:42;;;;;;;65.57;28.98;;;;;;;6.55;100.00;98726.06;5050864;28;20043;-88
2021/11/16 07:51:37;;;;;;;58.17;26.17;;;;;;;6.77;100.00;98764.44;5044772;28;20024;-88
2021/11/16 07:55:06;;;;;;;;;;;;;;;;;;;;;
2021/11/16 07:58:14;;;;;;;;;;;;;;;;;;;;;
2021/11/16 08:01:49;;;;;;;60.92;24.48;;;;;;;6.36;100.00;98693.81;5056477;28;20032;-89
2021/11/16 08:06:52;;;;;;;64.65;26.38;;;;;;;6.70;100.00;98746.03;5042368;28;20029;-90
2021/11/16 08:09:37;;;;;;;69.88;29.35;;;;;;;6.50;100.00;98707.56;5025200;28;20025;-88
2021/11/16 08:14:52;;;;;;;70.55;29.52;;;;;;;6.89;100.00;98742.81;5043720;28;20106;-90
2021/11/16 08:17:21;;;;;;;66.88;27.40;;;;;;;6.87;100.00;98734.00;5045107;28;20040;-88
2021/11/16 08:19:55;;;;;;;63.60;27.80;;;;;;;7.01;100.00;98742.47;5044319;28;20103;-90
2021/11/16 08:22:24;;;;;;;65.63;27.05;;;;;;;6.80;100.00;98711.16;5031974;28;20029;-90
2021/11/16 08:24:54;;;;;;;64.78;27.50;;;;;;;6.86;100.00;98699.50;5028355;28;20035;-88
2021/11/16 08:28:00;;;;;;;70.45;28.27;;;;;;;6.60;100.00;98680.75;5024116;28;20052;-89
2021/11/16 08:41:51;;;;;;;60.97;24.52;;;;;;;6.98;100.00;98758.50;4862366;29;20045;-88
2021/11/16 08:45:25;;;;;;;66.43;25.17;;;;;;;6.80;100.00;98715.63;4881727;29;20076;-88
2021/11/16 08:52:26;;;;;;;73.38;30.73;;;;;;;6.88;100.00;98711.84;4890838;29;20092;-89
2021/11/16 08:55:10;;;;;;;84.65;34.38;;;;;;;7.08;100.00;98749.38;4986549;28;20116;-90
2021/11/16 08:57:49;;;;;;;100.32;40.50;;;;;;;6.58;100.00;98672.81;4975972;28;20026;-86
2021/11/16 09:00:26;;;;;;;101.95;39.88;;;;;;;7.20;100.00;98742.81;4979264;28;20029;-74
2021/11/16 09:03:19;;;;;;;98.57;39.85;;;;;;;7.35;100.00;98750.34;4985112;28;20041;-75
2021/11/16 09:05:47;;;;;;;82.95;38.45;;;;;;;7.43;100.00;98748.34;5036838;28;20036;-76
2021/11/16 09:08:23;;;;;;;80.00;35.60;;;;;;;7.51;100.00;98758.72;5034362;28;20488;-83
2021/11/16 09:10:55;;;;;;;62.38;28.75;;;;;;;7.23;100.00;98741.88;5017997;28;20071;-82
2021/11/16 09:13:23;;;;;;;61.53;26.65;;;;;;;7.21;100.00;98756.97;5022927;28;20032;-79
2021/11/16 09:16:08;;;;;;;59.22;27.08;;;;;;;7.39;100.00;98762.63;5035218;28;20471;-79
2021/11/16 09:18:43;;;;;;;63.38;26.05;;;;;;;7.37;100.00;98759.16;5026920;28;20032;-81
2021/11/16 09:21:14;;;;;;;66.72;29.60;;;;;;;7.39;100.00;98753.78;5023781;28;20018;-80
2021/11/16 09:23:50;;;;;;;68.95;31.92;;;;;;;7.54;100.00;98742.66;5040493;28;20017;-80
2021/11/16 09:26:22;;;;;;;80.32;32.55;;;;;;;7.43;100.00;98723.50;5016889;28;20055;-79
2021/11/16 09:29:06;;;;;;;73.18;31.52;;;;;;;7.43;100.00;98724.38;5031819;28;20025;-80
2021/11/16 09:31:46;;;;;;;71.88;33.78;;;;;;;7.60;100.00;98740.69;5031687;28;20381;-80
2021/11/16 09:34:16;;;;;;;64.10;30.90;;;;;;;7.55;100.00;98739.09;5010944;28;20036;-80
2021/11/16 09:36:51;;;;;;;69.90;32.72;;;;;;;7.35;100.00;98714.88;5045795;28;20076;-80
2021/11/16 09:39:19;;;;;;;59.72;27.92;;;;;;;7.60;100.00;98727.38;5054955;28;20472;-80
2021/11/16 09:41:53;;;;;;;66.38;32.72;;;;;;;7.54;100.00;98734.69;5053147;28;20108;-79
2021/11/16 09:44:31;;;;;;;64.78;31.33;;;;;;;7.56;100.00;98725.75;5064838;28;20029;-74
2021/11/16 09:46:57;;;;;;;60.50;30.33;;;;;;;7.61;100.00;98739.78;5051747;28;20652;-76
2021/11/16 09:49:47;;;;;;;63.53;28.92;;;;;;;7.49;100.00;98737.50;5068226;28;20028;-75
2021/11/16 09:52:15;;;;;;;64.28;26.58;;;;;;;7.32;100.00;98729.13;5057746;28;20029;-76
2021/11/16 09:54:56;;;;;;;65.25;28.33;;;;;;;7.14;100.00;98718.19;5064342;28;20107;-74
2021/11/16 09:57:36;;;;;;;72.03;32.28;;;;;;;7.06;100.00;98716.63;5034717;28;20029;-74
2021/11/16 10:00:10;;;;;;;90.80;34.83;;;;;;;7.10;100.00;98722.72;5041903;28;20032;-75
2021/11/16 10:02:38;;;;;;;71.00;31.92;;;;;;;7.08;100.00;98721.88;5059700;28;20564;-76
2021/11/16 10:05:26;;;;;;;73.70;32.80;;;;;;;7.06;100.00;98723.72;5871728;22;20015;-76
2021/11/16 10:08:10;;;;;;;76.70;31.83;;;;;;;7.09;100.00;98716.53;5056551;28;20041;-76
2021/11/16 10:10:41;;;;;;;87.82;34.55;;;;;;;7.14;100.00;98711.06;5027101;28;20364;-75
2021/11/16 10:13:21;;;;;;;71.03;32.72;;;;;;;7.19;100.00;98710.94;5051350;28;20114;-76
2021/11/16 10:15:50;;;;;;;80.15;35.95;;;;;;;7.28;100.00;98706.22;5021480;28;20064;-77
2021/11/16 10:18:17;;;;;;;84.85;34.78;;;;;;;7.18;100.00;98693.22;5026416;28;20091;-76
2021/11/16 10:20:43;;;;;;;89.63;38.25;;;;;;;7.18;100.00;98702.06;5051556;28;20005;-76
2021/11/16 10:23:11;;;;;;;82.43;38.00;;;;;;;7.16;100.00;98695.94;5011099;28;20035;-76
2021/11/16 10:25:43;;;;;;;83.93;35.58;;;;;;;7.28;100.00;98697.34;5022961;28;20020;-76
2021/11/16 10:28:15;;;;;;;74.72;33.80;;;;;;;7.26;100.00;98693.88;5024467;28;20041;-76
2021/11/16 10:30:42;;;;;;;63.55;30.23;;;;;;;7.26;100.00;98693.88;5031753;28;20507;-75
2021/11/16 10:33:21;;;;;;;68.82;30.02;;;;;;;7.39;100.00;98682.78;5049941;28;20037;-76
2021/11/16 10:36:13;;;;;;;75.00;33.78;;;;;;;7.43;100.00;98686.22;5031044;28;20078;-75
2021/11/16 10:38:44;;;;;;;62.75;27.27;;;;;;;7.30;100.00;98660.91;5040247;28;20127;-75
2021/11/16 10:41:20;;;;;;;60.03;25.73;;;;;;;6.88;100.00;98612.56;5023866;28;20033;-76
2021/11/16 10:43:50;;;;;;;63.20;26.55;;;;;;;6.94;100.00;98637.19;5030673;28;20064;-75
2021/11/16 10:46:20;;;;;;;64.75;26.27;;;;;;;7.21;100.00;98653.22;5040100;28;20040;-76
2021/11/16 10:48:51;;;;;;;60.85;27.15;;;;;;;7.16;100.00;98637.41;5032178;28;20470;-75
2021/11/16 10:51:17;;;;;;;58.10;25.63;;;;;;;6.95;100.00;98614.97;5023977;28;20480;-76
2021/11/16 10:53:55;;;;;;;65.30;27.48;;;;;;;7.02;100.00;98610.34;5033234;28;20036;-75
2021/11/16 10:56:26;;;;;;;68.30;30.00;;;;;;;6.95;100.00;98622.94;5024623;28;20654;-75
2021/11/16 10:58:53;;;;;;;84.55;36.72;;;;;;;6.97;100.00;98630.91;5013683;28;20044;-75
2021/11/16 11:01:22;;;;;;;84.95;35.55;;;;;;;6.67;100.00;98591.94;5042776;28;20044;-76
2021/11/16 11:03:54;;;;;;;69.72;28.67;;;;;;;6.76;100.00;98631.53;5051104;28;20056;-77
2021/11/16 11:06:28;;;;;;;64.22;25.95;;;;;;;6.50;100.00;98589.75;5026314;28;20114;-76
2021/11/16 11:09:04;;;;;;;71.13;27.38;;;;;;;6.94;100.00;98665.56;5019258;28;20072;-76
2021/11/16 11:11:50;;;;;;;74.50;29.15;;;;;;;6.91;100.00;98647.91;5055440;28;20078;-76
2021/11/16 11:14:18;;;;;;;77.78;31.48;;;;;;;6.92;100.00;98660.28;5038642;28;20032;-76
2021/11/16 11:16:56;;;;;;;87.35;31.98;;;;;;;6.90;100.00;98658.59;5040766;28;20103;-75
2021/11/16 11:19:27;;;;;;;83.65;31.73;;;;;;;6.96;100.00;98663.72;5052732;28;20029;-76
2021/11/16 11:24:44;;;;;;;83.78;29.80;;;;;;;6.88;100.00;98649.78;5046915;28;20028;-76
2021/11/16 11:27:27;;;;;;;84.93;30.73;;;;;;;6.88;100.00;98655.09;5030623;28;20029;-75
2021/11/16 11:30:08;;;;;;;85.22;30.92;;;;;;;6.87;100.00;98640.94;5039416;28;20033;-76
2021/11/16 11:32:46;;;;;;;70.82;27.40;;;;;;;6.86;100.00;98641.84;5052188;28;20496;-77
2021/11/16 11:35:15;;;;;;;68.32;28.05;;;;;;;6.95;100.00;98644.22;5059268;28;20029;-77
2021/11/16 11:37:55;;;;;;;65.88;27.45;;;;;;;6.86;100.00;98641.84;5033834;28;20502;-74
2021/11/16 11:40:29;;;;;;;75.60;31.63;;;;;;;6.84;100.00;98640.16;5052158;28;20508;-74
2021/11/16 11:42:58;;;;;;;84.53;34.67;;;;;;;6.80;100.00;98647.34;5012228;28;20037;-76
2021/11/16 11:45:31;;;;;;;87.45;36.47;;;;;;;6.89;100.00;98644.41;5037993;28;20036;-76
2021/11/16 11:48:00;;;;;;;100.65;42.28;;;;;;;6.84;100.00;98646.34;5032099;28;20035;-76
2021/11/16 11:50:28;;;;;;;87.15;40.03;;;;;;;6.90;100.00;98640.84;5066389;28;20036;-76
2021/11/16 11:52:55;;;;;;;89.93;37.05;;;;;;;6.90;100.00;98640.84;5058933;28;20024;-76
2021/11/16 11:55:21;;;;;;;89.50;37.10;;;;;;;6.83;100.00;98641.09;5034479;28;20017;-76
2021/11/16 11:57:47;;;;;;;88.05;35.97;;;;;;;6.82;100.00;98642.88;5041735;28;20028;-76
2021/11/16 12:00:14;;;;;;;83.00;36.58;;;;;;;6.78;100.00;98640.34;5039574;28;20031;-75
2021/11/16 12:02:40;;;;;;;85.43;35.92;;;;;;;6.83;100.00;98628.63;5032407;28;20468;-76
2021/11/16 12:05:09;;;;;;;86.18;35.55;;;;;;;6.73;100.00;98632.50;5022039;28;20472;-76
2021/11/16 12:07:35;;;;;;;84.53;37.58;;;;;;;6.69;100.00;98628.19;5019952;28;20491;-75
2021/11/16 12:10:01;;;;;;;82.18;38.08;;;;;;;6.74;100.00;98639.53;5045160;28;20093;-78
2021/11/16 12:12:27;;;;;;;90.50;38.20;;;;;;;6.59;100.00;98616.06;5035267;28;20033;-75
2021/11/16 12:15:19;;;;;;;95.03;40.53;;;;;;;6.53;100.00;98614.47;5038687;28;20419;-75
2021/11/16 12:17:53;;;;;;;90.33;37.53;;;;;;;6.71;100.00;98617.50;5043664;28;20029;-76
2021/11/16 12:20:54;;;;;;;82.40;32.25;;;;;;;6.74;100.00;98617.41;5067277;28;20056;-76
2021/11/16 12:23:42;;;;;;;91.38;35.67;;;;;;;6.49;100.00;98626.09;5045570;28;20072;-76
2021/11/16 12:26:12;;;;;;;88.93;36.65;;;;;;;6.54;100.00;98612.69;5058797;28;20033;-77
2021/11/16 12:28:38;;;;;;;95.25;37.15;;;;;;;6.67;100.00;98619.41;5036436;28;20496;-77
2021/11/16 12:31:05;;;;;;;87.45;36.13;;;;;;;6.48;100.00;98618.19;5055898;28;20043;-76
2021/11/16 12:33:41;;;;;;;87.10;35.10;;;;;;;6.51;100.00;98618.97;5060934;28;20483;-77
2021/11/16 12:36:09;;;;;;;95.93;38.08;;;;;;;6.45;100.00;98618.25;5053697;28;20115;-77
2021/11/16 12:38:43;;;;;;;91.65;36.55;;;;;;;6.45;100.00;98618.25;5068090;28;20035;-76
2021/11/16 12:41:27;;;;;;;90.38;37.25;;;;;;;6.39;100.00;98629.06;5047371;28;20070;-74
2021/11/16 12:43:58;;;;;;;91.75;38.78;;;;;;;6.48;100.00;98618.19;5068721;28;20419;-75
2021/11/16 12:46:26;;;;;;;99.70;42.63;;;;;;;6.40;100.00;98622.81;5062931;28;20029;-76
2021/11/16 12:48:55;;;;;;;90.20;39.47;;;;;;;6.30;100.00;98593.00;5059634;28;20051;-76
2021/11/16 12:51:22;;;;;;;98.38;39.67;;;;;;;6.57;100.00;98627.66;5024613;28;20029;-75
2021/11/16 12:54:03;;;;;;;86.57;34.83;;;;;;;6.58;100.00;98619.66;5032044;28;20090;-76
2021/11/16 12:56:47;;;;;;;94.20;39.53;;;;;;;6.60;100.00;98612.50;5070263;28;20411;-76
2021/11/16 12:59:14;;;;;;;84.93;36.38;;;;;;;6.49;100.00;98611.97;5054397;28;20479;-75
2021/11/16 13:01:47;;;;;;;87.72;37.72;;;;;;;6.36;100.00;98602.59;5048343;28;20452;-77
2021/11/16 13:04:36;;;;;;;95.10;36.92;;;;;;;6.43;100.00;98598.81;5060915;28;20510;-77
2021/11/16 13:07:15;;;;;;;135.48;58.10;;;;;;;6.43;100.00;98598.81;5049111;28;20127;-77
2021/11/16 13:10:12;;;;;;;105.70;46.72;;;;;;;6.55;100.00;98609.13;5059178;28;20040;-76
2021/11/16 13:12:58;;;;;;;113.88;45.05;;;;;;;6.51;100.00;98611.00;5006484;28;20125;-76
2021/11/16 13:15:25;;;;;;;144.73;60.00;;;;;;;6.43;100.00;98604.13;5063698;28;20112;-76
2021/11/16 13:17:55;;;;;;;196.38;89.07;;;;;;;6.21;100.00;98603.00;5043787;28;20522;-76
2021/11/16 13:20:44;;;;;;;102.50;41.63;;;;;;;6.22;100.00;98591.44;5039652;28;20118;-75
2021/11/16 13:23:26;;;;;;;157.05;64.03;;;;;;;6.19;100.00;98602.16;5023073;28;20403;-76
2021/11/16 13:26:00;;;;;;;91.80;38.30;;;;;;;6.19;100.00;98597.72;5041563;28;20527;-75
2021/11/16 13:28:32;;;;;;;93.25;40.08;;;;;;;6.17;100.00;98602.22;5022376;28;20131;-75
2021/11/16 13:31:17;;;;;;;95.88;40.72;;;;;;;6.08;100.00;98597.16;5051519;28;20472;-74
2021/11/16 13:33:55;;;;;;;113.68;51.60;;;;;;;6.11;100.00;98607.69;5051404;28;20036;-77
2021/11/16 13:36:23;;;;;;;104.30;45.13;;;;;;;6.16;100.00;98602.25;5042000;28;20074;-77
2021/11/16 13:38:59;;;;;;;85.32;36.78;;;;;;;6.22;100.00;98602.06;5028496;28;20028;-77
2021/11/16 13:41:51;;;;;;;99.40;42.25;;;;;;;6.19;100.00;98588.88;5036000;28;20071;-77
2021/11/16 13:44:28;;;;;;;95.33;39.47;;;;;;;6.12;100.00;98588.19;5038025;28;20036;-79
2021/11/16 13:47:06;;;;;;;89.18;39.63;;;;;;;6.13;100.00;98581.09;5039225;28;20029;-77
2021/11/16 13:49:39;;;;;;;107.38;43.72;;;;;;;6.10;100.00;98579.38;5030633;28;20041;-76